Time;durP1;ratioP1;P1;durP2;ratioP2;P2;SDS_P1;SDS_P2;PMS_P1;PMS_P2;Temp;Humidity;BMP_temperature;BMP_pressure;BME280_temperature;BME280_humidity;BME280_pressure;Samples;Min_cycle;Max_cycle;Signal;HPM_P1;HPM_P2
2022/06/27 00:00:04;;;;;;;2.65;1.80;;;21.40;99.90;;;;;;5075666;28;20207;-61
2022/06/27 00:02:31;;;;;;;2.42;1.63;;;21.40;99.90;;;;;;5075871;28;20204;-61
2022/06/27 00:04:57;;;;;;;1.52;1.40;;;21.20;99.90;;;;;;5075492;28;20205;-63
2022/06/27 00:07:24;;;;;;;3.28;1.40;;;21.00;99.90;;;;;;5076472;28;20235;-61
2022/06/27 00:09:51;;;;;;;1.52;1.35;;;20.80;99.90;;;;;;5076739;28;20209;-61
2022/06/27 00:12:20;;;;;;;1.90;1.40;;;20.70;99.90;;;;;;5077274;28;20227;-61
2022/06/27 00:14:47;;;;;;;4.30;1.48;;;20.60;99.90;;;;;;5076416;28;20209;-61
2022/06/27 00:17:14;;;;;;;2.25;1.60;;;20.50;99.90;;;;;;5076855;28;20267;-61
2022/06/27 00:19:40;;;;;;;3.53;1.33;;;20.60;99.90;;;;;;5076452;28;20201;-61
2022/06/27 00:22:07;;;;;;;1.10;1.00;;;20.60;99.90;;;;;;5077967;28;20209;-61
2022/06/27 00:24:34;;;;;;;1.10;1.00;;;20.60;99.90;;;;;;5075266;28;20205;-61
2022/06/27 00:27:01;;;;;;;2.80;1.10;;;20.60;99.90;;;;;;5075416;28;20225;-61
2022/06/27 00:29:29;;;;;;;1.67;1.00;;;20.60;99.90;;;;;;5075721;28;20574;-61
2022/06/27 00:31:56;;;;;;;1.30;0.60;;;20.60;99.90;;;;;;5074806;28;20593;-60
2022/06/27 00:34:23;;;;;;;1.38;0.60;;;20.50;99.90;;;;;;5075093;28;20204;-60
2022/06/27 00:36:50;;;;;;;1.48;0.60;;;20.60;99.90;;;;;;5074644;28;20612;-59
2022/06/27 00:39:17;;;;;;;2.75;0.90;;;20.50;99.90;;;;;;5076106;28;20231;-60
2022/06/27 00:41:44;;;;;;;2.95;0.70;;;20.60;99.90;;;;;;5075085;28;20273;-60
2022/06/27 00:44:10;;;;;;;2.63;0.60;;;20.60;99.90;;;;;;5075808;28;20212;-61
2022/06/27 00:46:38;;;;;;;3.03;1.10;;;20.50;99.90;;;;;;5075894;28;20311;-61
2022/06/27 00:49:05;;;;;;;4.80;1.30;;;20.40;99.90;;;;;;5075415;28;20204;-61
2022/06/27 00:51:32;;;;;;;8.98;1.25;;;20.30;99.90;;;;;;5075954;28;20762;-61
2022/06/27 00:54:03;;;;;;;3.55;1.20;;;20.40;99.90;;;;;;5075630;28;20288;-60
2022/06/27 00:56:30;;;;;;;3.75;0.82;;;20.40;99.90;;;;;;5076628;28;20239;-61
2022/06/27 00:58:57;;;;;;;7.40;1.80;;;20.50;99.90;;;;;;5075843;28;20237;-60
2022/06/27 01:01:24;;;;;;;5.63;1.60;;;20.50;99.90;;;;;;5076000;28;20233;-61
2022/06/27 01:03:52;;;;;;;8.30;1.60;;;20.50;99.90;;;;;;5079459;28;20240;-61
2022/06/27 01:06:19;;;;;;;5.95;1.10;;;20.40;99.90;;;;;;5078670;28;20231;-61
2022/06/27 01:08:46;;;;;;;7.65;1.40;;;20.30;99.90;;;;;;5078989;28;20581;-62
2022/06/27 01:11:14;;;;;;;2.72;0.77;;;20.20;99.90;;;;;;5079067;28;20229;-61
2022/06/27 01:13:40;;;;;;;6.88;1.20;;;19.90;99.90;;;;;;5077943;28;20204;-62
2022/06/27 01:16:07;;;;;;;5.32;1.25;;;19.80;99.90;;;;;;5079572;28;20233;-61
2022/06/27 01:18:34;;;;;;;3.15;0.90;;;19.70;99.90;;;;;;5078357;28;20212;-62
2022/06/27 01:21:02;;;;;;;3.55;1.13;;;19.50;99.90;;;;;;5078478;28;20691;-61
2022/06/27 01:23:31;;;;;;;4.30;1.20;;;19.50;99.90;;;;;;5079426;28;20211;-62
2022/06/27 01:25:58;;;;;;;6.93;1.25;;;19.30;99.90;;;;;;5079401;28;20780;-62
2022/06/27 01:28:25;;;;;;;5.13;1.02;;;19.10;99.90;;;;;;5079195;28;20197;-60
2022/06/27 01:30:52;;;;;;;3.40;1.10;;;18.70;99.90;;;;;;5078742;28;20215;-60
2022/06/27 01:33:19;;;;;;;13.63;1.30;;;18.40;99.90;;;;;;5076099;28;20231;-62
2022/06/27 01:35:46;;;;;;;2.25;0.90;;;18.20;99.90;;;;;;5075212;28;20622;-59
2022/06/27 01:38:13;;;;;;;1.98;0.88;;;18.10;99.90;;;;;;5075568;28;20730;-60
2022/06/27 01:40:41;;;;;;;4.03;1.30;;;17.90;99.90;;;;;;5075497;28;20205;-59
2022/06/27 01:43:08;;;;;;;2.40;1.10;;;17.90;99.90;;;;;;5075836;28;20205;-60
2022/06/27 01:45:35;;;;;;;1.75;1.10;;;18.00;99.90;;;;;;5076385;28;20224;-62
2022/06/27 01:48:02;;;;;;;1.70;1.10;;;17.90;99.90;;;;;;5075820;28;20208;-60
2022/06/27 01:50:31;;;;;;;2.10;0.90;;;17.90;99.90;;;;;;5076128;28;20215;-60
2022/06/27 01:53:00;;;;;;;1.50;0.95;;;17.90;99.90;;;;;;5076299;28;20233;-60
2022/06/27 01:55:27;;;;;;;1.67;1.08;;;17.90;99.90;;;;;;5076063;28;20209;-60
2022/06/27 01:57:55;;;;;;;2.85;0.93;;;18.00;99.90;;;;;;5076339;28;20213;-60
2022/06/27 02:00:22;;;;;;;2.03;1.00;;;18.00;99.90;;;;;;5076077;28;20643;-60
2022/06/27 02:02:49;;;;;;;1.83;0.80;;;18.10;99.90;;;;;;5076236;28;20197;-60
2022/06/27 02:05:16;;;;;;;3.78;1.20;;;18.10;99.90;;;;;;5076354;28;20241;-62
2022/06/27 02:07:44;;;;;;;1.75;0.90;;;18.10;99.90;;;;;;5076029;28;20303;-60
2022/06/27 02:10:11;;;;;;;0.88;0.80;;;18.10;99.90;;;;;;5077705;28;20205;-62
2022/06/27 02:12:39;;;;;;;4.30;1.17;;;18.10;99.90;;;;;;5076803;28;20229;-60
2022/06/27 02:15:09;;;;;;;2.28;1.02;;;18.10;99.90;;;;;;5076366;28;20215;-60
2022/06/27 02:17:36;;;;;;;2.38;1.02;;;18.20;99.90;;;;;;5077928;28;20213;-60
2022/06/27 02:20:05;;;;;;;1.90;1.10;;;18.20;99.90;;;;;;5077801;28;20272;-60
2022/06/27 02:22:32;;;;;;;1.98;1.10;;;18.30;99.90;;;;;;5078005;28;20240;-60
2022/06/27 02:24:59;;;;;;;2.67;0.95;;;18.30;99.90;;;;;;5077399;28;20618;-60
2022/06/27 02:27:27;;;;;;;3.30;0.95;;;18.30;99.90;;;;;;5077528;28;20602;-60
2022/06/27 02:29:54;;;;;;;1.48;0.90;;;18.40;99.90;;;;;;5077185;28;20563;-60
2022/06/27 02:32:22;;;;;;;2.05;1.30;;;18.50;99.90;;;;;;5076475;28;20239;-61
2022/06/27 02:34:51;;;;;;;2.40;1.00;;;18.50;99.90;;;;;;5076881;28;20224;-61
2022/06/27 02:37:19;;;;;;;3.17;1.08;;;18.60;99.90;;;;;;5077066;28;20229;-61
2022/06/27 02:39:46;;;;;;;2.88;1.30;;;18.50;99.90;;;;;;5078001;28;20204;-60
2022/06/27 02:42:15;;;;;;;2.03;1.30;;;18.50;99.90;;;;;;5077844;28;20215;-61
2022/06/27 02:44:43;;;;;;;10.63;1.52;;;18.50;99.90;;;;;;5078244;28;20664;-61
2022/06/27 02:47:11;;;;;;;3.20;1.60;;;18.50;99.90;;;;;;5077289;28;20224;-61
2022/06/27 02:49:40;;;;;;;2.08;1.80;;;18.50;99.90;;;;;;5078024;28;20200;-61
2022/06/27 02:52:13;;;;;;;3.78;2.55;;;18.60;99.90;;;;;;5078202;28;20221;-61
2022/06/27 02:54:43;;;;;;;1.58;1.20;;;18.60;99.90;;;;;;5075973;28;20595;-61
2022/06/27 02:57:16;;;;;;;1.98;1.20;;;18.60;99.90;;;;;;5077724;28;20221;-61
2022/06/27 02:59:46;;;;;;;2.45;1.95;;;18.60;99.90;;;;;;5075914;28;20209;-61
2022/06/27 03:02:17;;;;;;;3.28;1.60;;;18.50;99.90;;;;;;5076781;28;20268;-61
2022/06/27 03:04:45;;;;;;;3.28;1.30;;;18.50;99.90;;;;;;5077069;28;20743;-61
2022/06/27 03:07:12;;;;;;;2.28;1.27;;;18.50;99.90;;;;;;5076795;28;20213;-61
2022/06/27 03:09:39;;;;;;;11.48;10.27;;;18.50;99.90;;;;;;5077921;28;20208;-61
2022/06/27 03:12:07;;;;;;;3.38;2.65;;;18.50;99.90;;;;;;5076755;28;20256;-61
2022/06/27 03:14:34;;;;;;;2.40;2.10;;;18.50;99.90;;;;;;5076240;28;20205;-61
2022/06/27 03:17:01;;;;;;;2.00;1.10;;;18.50;99.90;;;;;;5076980;28;20236;-61
2022/06/27 03:19:28;;;;;;;6.50;4.72;;;18.50;99.90;;;;;;5076527;28;20212;-62
2022/06/27 03:21:57;;;;;;;2.15;1.40;;;18.50;99.90;;;;;;5077568;28;20212;-61
2022/06/27 03:24:24;;;;;;;2.60;1.73;;;18.60;99.90;;;;;;5076812;28;20231;-61
2022/06/27 03:26:51;;;;;;;5.55;2.13;;;18.50;99.90;;;;;;5075575;28;20224;-61
2022/06/27 03:29:18;;;;;;;3.28;1.77;;;18.50;99.90;;;;;;5076160;28;20212;-61
2022/06/27 03:31:45;;;;;;;3.22;1.67;;;18.60;99.90;;;;;;5075896;28;20204;-62
2022/06/27 03:34:12;;;;;;;4.13;2.63;;;18.50;99.90;;;;;;5076980;28;20205;-62
2022/06/27 03:36:41;;;;;;;5.00;2.60;;;18.60;99.90;;;;;;5076864;28;20224;-62
2022/06/27 03:39:11;;;;;;;4.82;2.92;;;18.60;99.90;;;;;;5077305;28;20213;-61
2022/06/27 03:41:39;;;;;;;6.43;4.63;;;18.70;99.90;;;;;;5076547;28;20300;-62
2022/06/27 03:44:08;;;;;;;4.65;3.08;;;18.70;99.90;;;;;;5076700;28;20211;-62
2022/06/27 03:46:35;;;;;;;3.55;1.48;;;18.70;99.90;;;;;;5074258;28;20231;-61
2022/06/27 03:51:46;;;;;;;4.13;3.05;;;18.90;99.90;;;;;;5075280;28;20217;-61
2022/06/27 03:54:15;;;;;;;5.43;2.55;;;18.90;99.90;;;;;;5075308;28;20205;-63
2022/06/27 03:56:42;;;;;;;3.58;1.73;;;19.00;99.90;;;;;;5074269;28;20229;-62
2022/06/27 03:59:08;;;;;;;2.70;2.10;;;19.10;99.90;;;;;;5075472;28;20209;-62
2022/06/27 04:01:35;;;;;;;3.40;1.40;;;19.20;99.90;;;;;;5075468;28;20213;-60
2022/06/27 04:04:02;;;;;;;2.78;1.27;;;19.30;99.90;;;;;;5074199;28;20201;-62
2022/06/27 04:06:29;;;;;;;2.63;1.20;;;19.30;99.90;;;;;;5075192;28;20239;-62
2022/06/27 04:08:56;;;;;;;1.70;1.00;;;19.40;99.90;;;;;;5076785;28;20205;-62
2022/06/27 04:11:24;;;;;;;1.30;1.10;;;19.40;99.90;;;;;;5074296;28;20208;-62
2022/06/27 04:13:51;;;;;;;1.88;1.35;;;19.40;99.90;;;;;;5073286;28;20221;-60
2022/06/27 04:16:17;;;;;;;3.60;1.35;;;19.40;99.90;;;;;;5072992;28;20241;-60
2022/06/27 04:18:44;;;;;;;2.17;1.02;;;19.30;99.90;;;;;;5072584;28;20205;-61
2022/06/27 04:21:11;;;;;;;2.75;1.27;;;19.20;99.90;;;;;;5072718;28;20217;-61
2022/06/27 04:23:38;;;;;;;3.58;2.22;;;19.00;99.90;;;;;;5073067;28;20614;-61
2022/06/27 04:26:05;;;;;;;1.25;1.02;;;19.00;99.90;;;;;;5072252;28;20229;-61
2022/06/27 04:28:33;;;;;;;1.80;1.27;;;19.10;99.90;;;;;;5072414;28;20208;-60
2022/06/27 04:30:59;;;;;;;3.22;1.67;;;19.30;99.90;;;;;;5072214;28;20205;-60
2022/06/27 04:33:26;;;;;;;2.47;1.45;;;19.40;99.90;;;;;;5072812;28;20225;-60
2022/06/27 04:35:53;;;;;;;1.95;1.33;;;19.40;99.90;;;;;;5073610;28;20224;-60
2022/06/27 04:38:20;;;;;;;3.45;1.60;;;19.50;99.90;;;;;;5076114;28;20294;-61
2022/06/27 04:40:47;;;;;;;3.25;1.50;;;19.60;99.90;;;;;;5076508;28;20247;-62
2022/06/27 04:43:14;;;;;;;4.60;1.50;;;19.80;99.90;;;;;;5077623;28;20228;-61
2022/06/27 04:45:43;;;;;;;1.42;1.00;;;19.90;99.90;;;;;;5076999;28;20630;-61
2022/06/27 04:48:10;;;;;;;2.53;1.27;;;19.80;99.90;;;;;;5077674;28;20639;-60
2022/06/27 04:50:38;;;;;;;2.05;1.17;;;19.80;99.90;;;;;;5077130;28;20227;-60
2022/06/27 04:53:06;;;;;;;3.00;1.38;;;20.00;99.90;;;;;;5076982;28;20225;-61
2022/06/27 04:55:33;;;;;;;1.52;1.02;;;20.60;99.90;;;;;;5077313;28;20700;-61
2022/06/27 04:58:00;;;;;;;2.55;1.10;;;21.90;99.90;;;;;;5078567;28;20200;-61
2022/06/27 05:00:27;;;;;;;2.38;1.00;;;23.60;99.90;;;;;;5078235;28;20200;-62
2022/06/27 05:02:55;;;;;;;3.20;1.10;;;25.00;99.90;;;;;;5078097;28;20259;-61
2022/06/27 05:05:22;;;;;;;1.33;0.70;;;25.80;99.90;;;;;;5077358;28;20665;-61
2022/06/27 05:07:49;;;;;;;1.08;0.80;;;26.50;99.90;;;;;;5077586;28;20212;-61
2022/06/27 05:10:16;;;;;;;1.27;0.70;;;27.00;99.90;;;;;;5077331;28;20208;-61
2022/06/27 05:12:42;;;;;;;1.35;1.25;;;27.60;99.90;;;;;;5078024;28;20229;-61
2022/06/27 05:15:10;;;;;;;1.80;1.00;;;28.00;99.90;;;;;;5078100;28;20220;-62
2022/06/27 05:17:36;;;;;;;2.88;0.93;;;28.50;99.90;;;;;;5098343;22;20555;-57
2022/06/27 05:20:06;;;;;;;0.88;0.60;;;28.90;99.90;;;;;;5074626;28;20698;-58
2022/06/27 05:22:33;;;;;;;1.73;0.90;;;29.40;99.90;;;;;;5075093;28;20204;-56
2022/06/27 05:25:00;;;;;;;3.75;0.65;;;29.90;99.90;;;;;;5074858;28;20542;-56
2022/06/27 05:27:27;;;;;;;1.67;0.95;;;30.90;99.90;;;;;;5075036;28;20259;-58
2022/06/27 05:29:54;;;;;;;2.75;0.80;;;32.00;99.90;;;;;;5074971;28;20209;-58
2022/06/27 05:32:21;;;;;;;2.25;0.60;;;33.10;99.90;;;;;;5074867;28;20208;-57
2022/06/27 05:34:48;;;;;;;1.67;0.80;;;33.80;97.00;;;;;;5074785;28;20208;-58
2022/06/27 05:37:16;;;;;;;1.60;0.57;;;33.50;96.40;;;;;;5074378;28;20250;-57
2022/06/27 05:39:44;;;;;;;1.23;0.47;;;33.10;96.80;;;;;;5074831;28;20631;-57
2022/06/27 05:42:10;;;;;;;1.20;0.80;;;33.40;95.90;;;;;;5074528;28;20675;-57
2022/06/27 05:44:37;;;;;;;1.73;0.60;;;33.40;96.50;;;;;;5074441;28;20669;-58
2022/06/27 05:47:04;;;;;;;2.72;0.80;;;33.20;95.00;;;;;;5074187;28;20308;-57
2022/06/27 05:49:33;;;;;;;2.20;0.80;;;32.40;96.50;;;;;;5073138;28;20266;-58
2022/06/27 05:52:00;;;;;;;1.45;0.77;;;31.60;96.90;;;;;;5074337;28;20212;-57
2022/06/27 05:54:28;;;;;;;2.72;1.05;;;30.40;99.70;;;;;;5074362;28;20221;-57
2022/06/27 05:56:56;;;;;;;3.83;1.30;;;29.60;99.90;;;;;;5073821;28;20221;-58
2022/06/27 05:59:23;;;;;;;2.63;0.80;;;28.70;99.90;;;;;;5073892;28;20621;-58
2022/06/27 06:01:51;;;;;;;4.00;1.15;;;28.00;99.90;;;;;;5074531;28;20640;-58
2022/06/27 06:04:19;;;;;;;2.40;1.40;;;27.30;99.90;;;;;;5073886;28;20699;-57
2022/06/27 06:06:46;;;;;;;2.72;1.40;;;26.60;99.90;;;;;;5073841;28;20763;-58
2022/06/27 06:09:13;;;;;;;3.47;1.63;;;26.00;99.90;;;;;;5073743;28;20254;-56
2022/06/27 06:11:42;;;;;;;2.40;1.50;;;25.50;99.90;;;;;;5073698;28;20205;-58
2022/06/27 06:14:10;;;;;;;3.53;1.30;;;25.30;99.90;;;;;;5073432;28;20224;-57
2022/06/27 06:16:38;;;;;;;5.15;1.70;;;25.10;99.90;;;;;;5073492;28;20233;-57
2022/06/27 06:19:05;;;;;;;3.35;1.40;;;25.10;99.90;;;;;;5073634;28;20304;-57
2022/06/27 06:21:32;;;;;;;3.22;1.20;;;25.60;99.90;;;;;;5073699;28;20217;-57
2022/06/27 06:23:59;;;;;;;3.05;1.63;;;26.10;99.90;;;;;;5073653;28;20623;-57
2022/06/27 06:26:26;;;;;;;3.35;1.42;;;26.60;99.90;;;;;;5073497;28;20227;-57
2022/06/27 06:28:54;;;;;;;2.15;1.02;;;26.90;99.90;;;;;;5073181;28;20220;-58
2022/06/27 06:31:24;;;;;;;2.47;0.80;;;27.00;99.90;;;;;;5073255;28;20688;-57
2022/06/27 06:33:51;;;;;;;2.20;0.90;;;27.00;99.90;;;;;;5073289;28;20228;-57
2022/06/27 06:36:19;;;;;;;1.95;0.90;;;26.60;99.90;;;;;;5073378;28;20311;-58
2022/06/27 06:38:47;;;;;;;3.33;1.05;;;25.90;99.90;;;;;;5073236;28;20205;-58
2022/06/27 06:41:14;;;;;;;2.75;1.00;;;25.30;99.90;;;;;;5073117;28;20208;-58
2022/06/27 06:43:41;;;;;;;3.83;1.00;;;24.90;99.90;;;;;;5073190;28;20209;-57
2022/06/27 06:46:10;;;;;;;2.35;0.70;;;24.80;99.90;;;;;;5073179;28;20229;-57
2022/06/27 06:48:38;;;;;;;1.38;0.77;;;24.90;99.90;;;;;;5073361;28;20205;-58
2022/06/27 06:51:05;;;;;;;1.70;0.80;;;25.10;99.90;;;;;;5072796;28;20201;-57
2022/06/27 06:53:32;;;;;;;3.33;1.00;;;25.50;99.90;;;;;;5072731;28;20221;-57
2022/06/27 06:55:59;;;;;;;2.03;0.77;;;25.60;99.90;;;;;;5072621;28;20229;-57
2022/06/27 06:58:26;;;;;;;1.52;0.90;;;25.20;99.90;;;;;;5072572;28;20204;-58
2022/06/27 07:00:54;;;;;;;3.08;1.10;;;24.90;99.90;;;;;;5072520;28;20209;-57
2022/06/27 07:03:22;;;;;;;2.75;1.00;;;24.70;99.90;;;;;;5072886;28;20207;-57
2022/06/27 07:05:49;;;;;;;1.80;0.75;;;24.70;99.90;;;;;;5072785;28;20585;-57
2022/06/27 07:08:16;;;;;;;0.93;0.68;;;24.90;99.90;;;;;;5072563;28;20216;-57
2022/06/27 07:10:43;;;;;;;0.55;0.40;;;24.90;99.90;;;;;;5072402;28;20205;-58
2022/06/27 07:13:10;;;;;;;1.27;0.80;;;25.30;99.90;;;;;;5072408;28;20278;-59
2022/06/27 07:15:37;;;;;;;2.38;0.80;;;25.20;99.90;;;;;;5072365;28;20201;-58
2022/06/27 07:18:04;;;;;;;1.85;0.85;;;25.20;99.90;;;;;;5072710;28;20209;-58
2022/06/27 07:20:33;;;;;;;1.05;0.88;;;25.30;99.90;;;;;;5072223;28;20209;-58
2022/06/27 07:23:00;;;;;;;5.68;0.80;;;25.40;99.90;;;;;;5072250;28;20201;-57
2022/06/27 07:25:26;;;;;;;0.80;0.60;;;25.40;99.90;;;;;;5072226;28;20218;-58
2022/06/27 07:27:55;;;;;;;4.63;0.82;;;25.20;99.90;;;;;;5072343;28;20221;-57
2022/06/27 07:30:21;;;;;;;1.63;1.23;;;24.70;99.90;;;;;;5072246;28;20218;-59
2022/06/27 07:32:48;;;;;;;4.03;1.13;;;24.20;99.90;;;;;;5066249;28;20446;-58
2022/06/27 07:35:16;;;;;;;0.98;0.80;;;23.80;99.90;;;;;;5071109;28;20217;-55
2022/06/27 07:37:47;;;;;;;1.27;0.80;;;23.50;99.90;;;;;;5071020;28;20260;-57
2022/06/27 07:40:15;;;;;;;1.60;0.93;;;23.50;99.90;;;;;;5070778;28;20692;-63
2022/06/27 07:42:42;;;;;;;1.25;0.90;;;23.80;99.90;;;;;;5071158;28;20707;-59
2022/06/27 07:45:10;;;;;;;0.75;0.75;;;24.00;99.90;;;;;;5070802;28;20703;-60
2022/06/27 07:47:37;;;;;;;1.52;0.80;;;23.90;99.90;;;;;;5070914;28;20708;-60
2022/06/27 07:50:05;;;;;;;1.90;0.95;;;24.10;99.90;;;;;;5071072;28;20438;-59
2022/06/27 07:53:11;;;;;;;1.08;0.77;;;24.20;99.90;;;;;;5070887;28;20220;-61
2022/06/27 07:55:21;;;;;;;6.00;3.30;;;24.40;99.90;;;;;;5070244;28;20229;-59
2022/06/27 07:57:50;;;;;;;1.10;0.95;;;24.70;99.90;;;;;;5071175;28;20251;-58
2022/06/27 08:00:16;;;;;;;1.98;1.05;;;24.90;99.90;;;;;;5071257;28;20205;-65
2022/06/27 08:02:43;;;;;;;1.10;0.77;;;25.00;99.90;;;;;;5070882;28;20239;-61
2022/06/27 08:05:10;;;;;;;0.90;0.70;;;25.00;99.90;;;;;;5070731;28;20209;-62
2022/06/27 08:07:37;;;;;;;1.25;0.90;;;24.90;99.90;;;;;;5061242;28;20229;-65
2022/06/27 08:10:05;;;;;;;0.82;0.82;;;25.00;99.90;;;;;;5069125;28;20208;-62
2022/06/27 08:12:34;;;;;;;0.40;0.40;;;25.10;99.90;;;;;;5069773;28;20214;-60
2022/06/27 08:15:01;;;;;;;1.15;1.00;;;25.20;99.90;;;;;;5070766;28;20270;-61
2022/06/27 08:17:29;;;;;;;1.50;0.90;;;25.00;99.90;;;;;;5069758;28;20464;-60
2022/06/27 08:19:55;;;;;;;0.73;0.70;;;24.80;99.90;;;;;;5068295;28;20757;-62
2022/06/27 08:22:25;;;;;;;1.17;0.77;;;24.80;99.90;;;;;;5068614;28;20304;-59
2022/06/27 08:24:52;;;;;;;1.13;0.90;;;24.80;99.90;;;;;;5069902;28;20581;-63
2022/06/27 08:27:20;;;;;;;1.42;1.10;;;24.80;99.90;;;;;;5070634;28;20236;-59
2022/06/27 08:29:48;;;;;;;1.08;0.98;;;24.90;99.90;;;;;;5069304;28;20217;-64
2022/06/27 08:32:14;;;;;;;1.10;0.93;;;25.10;99.90;;;;;;5070193;28;20212;-61
2022/06/27 08:34:41;;;;;;;1.27;1.10;;;25.20;99.90;;;;;;5069669;28;20317;-61
2022/06/27 08:37:09;;;;;;;1.55;1.00;;;25.30;99.90;;;;;;5068930;28;20650;-61
2022/06/27 08:39:35;;;;;;;0.95;0.93;;;25.30;99.90;;;;;;5069300;28;20682;-61
2022/06/27 08:42:02;;;;;;;4.85;2.58;;;25.20;99.90;;;;;;5069593;28;20555;-62
2022/06/27 08:44:30;;;;;;;1.35;1.10;;;25.20;99.90;;;;;;5070687;28;20200;-61
2022/06/27 08:46:58;;;;;;;1.98;1.10;;;25.30;99.90;;;;;;5070467;28;20335;-60
2022/06/27 08:49:25;;;;;;;2.42;1.10;;;25.20;99.90;;;;;;5070515;28;20212;-63
2022/06/27 08:51:52;;;;;;;1.65;1.23;;;24.90;99.90;;;;;;5070868;28;20553;-62
2022/06/27 08:54:19;;;;;;;2.85;1.23;;;24.60;99.90;;;;;;5070950;28;20249;-56
2022/06/27 08:56:45;;;;;;;2.25;1.40;;;24.40;99.90;;;;;;5070365;28;20225;-59
2022/06/27 08:59:12;;;;;;;1.35;1.10;;;24.20;99.90;;;;;;5070919;28;20208;-60
2022/06/27 09:01:39;;;;;;;1.63;1.20;;;24.20;99.90;;;;;;5071495;28;20205;-61
2022/06/27 09:04:10;;;;;;;2.47;1.35;;;24.00;99.90;;;;;;5072954;28;20205;-60
2022/06/27 09:06:56;;;;;;;2.45;0.95;;;24.10;99.90;;;;;;5072236;28;20294;-63
2022/06/27 09:09:24;;;;;;;1.50;1.30;;;24.00;99.90;;;;;;5071566;28;20244;-61
2022/06/27 09:11:52;;;;;;;1.80;1.40;;;24.30;99.90;;;;;;5070943;28;20209;-60
2022/06/27 09:14:35;;;;;;;5.28;1.02;;;24.70;99.90;;;;;;5071228;28;20225;-59
2022/06/27 09:17:04;;;;;;;2.83;1.35;;;24.80;99.90;;;;;;5071100;28;20310;-58
2022/06/27 09:19:50;;;;;;;2.40;1.23;;;24.80;99.90;;;;;;5071079;28;20206;-58
2022/06/27 09:22:19;;;;;;;1.63;1.40;;;24.70;99.90;;;;;;5071173;28;20209;-60
2022/06/27 09:25:02;;;;;;;1.48;1.17;;;24.90;99.90;;;;;;5074745;28;20664;-60
2022/06/27 09:27:40;;;;;;;3.22;2.22;;;25.00;99.90;;;;;;5074731;28;20225;-60
2022/06/27 09:30:29;;;;;;;2.63;1.15;;;25.50;99.90;;;;;;5074558;28;20575;-59
2022/06/27 09:32:58;;;;;;;2.10;1.10;;;25.60;99.90;;;;;;5067723;28;20216;-61
2022/06/27 09:35:29;;;;;;;1.73;1.30;;;25.60;99.90;;;;;;5074699;28;20248;-60
2022/06/27 09:37:57;;;;;;;1.30;1.15;;;25.40;99.90;;;;;;5074444;28;20266;-59
2022/06/27 09:40:26;;;;;;;1.90;1.20;;;25.10;99.90;;;;;;5074271;28;20703;-58
2022/06/27 09:42:54;;;;;;;2.05;1.10;;;24.90;99.90;;;;;;5074417;28;20287;-59
2022/06/27 09:45:24;;;;;;;2.30;1.30;;;25.10;99.90;;;;;;5074350;28;20204;-59
2022/06/27 09:47:56;;;;;;;1.95;1.17;;;25.50;99.90;;;;;;5074748;28;20259;-60
2022/06/27 09:50:23;;;;;;;1.40;1.10;;;25.60;99.90;;;;;;5074033;28;20711;-59
2022/06/27 09:52:53;;;;;;;3.03;1.30;;;25.60;99.90;;;;;;5074418;28;20205;-59
2022/06/27 09:55:23;;;;;;;1.98;1.25;;;25.40;99.90;;;;;;5074065;28;20221;-61
2022/06/27 09:57:50;;;;;;;1.98;1.10;;;24.90;99.90;;;;;;5074027;28;20312;-59
2022/06/27 10:00:19;;;;;;;1.38;1.27;;;24.80;99.90;;;;;;5073843;28;20209;-58
2022/06/27 10:02:46;;;;;;;1.70;1.30;;;24.80;99.90;;;;;;5074238;28;20205;-59
2022/06/27 10:05:16;;;;;;;0.90;0.90;;;25.00;99.90;;;;;;5073854;28;20205;-59
2022/06/27 10:07:44;;;;;;;3.35;1.20;;;25.60;99.90;;;;;;5073877;28;20225;-60
2022/06/27 10:10:12;;;;;;;1.40;1.30;;;26.50;99.90;;;;;;5073462;28;20233;-61
2022/06/27 10:12:39;;;;;;;1.50;1.20;;;27.00;99.90;;;;;;5073930;28;20291;-60
2022/06/27 10:15:26;;;;;;;1.60;1.40;;;27.30;99.90;;;;;;5073536;28;20225;-58
2022/06/27 10:17:56;;;;;;;1.60;1.30;;;27.60;99.90;;;;;;5073761;28;20239;-60
2022/06/27 10:20:31;;;;;;;1.60;1.15;;;28.10;99.90;;;;;;5073550;28;20216;-60
2022/06/27 10:23:18;;;;;;;1.40;1.10;;;28.40;99.90;;;;;;5074131;28;20208;-59
2022/06/27 10:25:46;;;;;;;2.58;1.10;;;28.90;99.90;;;;;;5073577;28;20278;-60
2022/06/27 10:28:17;;;;;;;1.35;1.10;;;28.80;99.90;;;;;;5073928;28;20208;-61
2022/06/27 10:30:45;;;;;;;2.13;1.20;;;28.70;99.90;;;;;;5073272;28;20212;-59
2022/06/27 10:33:35;;;;;;;2.95;1.95;;;28.50;99.90;;;;;;5073393;28;20685;-60
2022/06/27 10:36:16;;;;;;;2.15;1.30;;;28.30;99.90;;;;;;5072815;28;20279;-60
2022/06/27 10:38:57;;;;;;;2.20;1.42;;;27.90;99.90;;;;;;5073388;28;20215;-59
2022/06/27 10:41:42;;;;;;;3.50;1.48;;;27.40;99.90;;;;;;5072966;28;20208;-59
2022/06/27 10:44:32;;;;;;;1.48;1.38;;;27.00;99.90;;;;;;5073647;28;20278;-59
2022/06/27 10:46:59;;;;;;;2.00;1.67;;;26.90;99.90;;;;;;5073195;28;20229;-60
2022/06/27 10:49:27;;;;;;;3.45;1.67;;;27.00;99.90;;;;;;5072875;28;20204;-60
2022/06/27 10:52:26;;;;;;;3.10;1.70;;;27.10;99.90;;;;;;5072908;28;20204;-59
2022/06/27 10:54:54;;;;;;;4.13;1.60;;;27.20;99.90;;;;;;5069914;28;20316;-58
2022/06/27 10:57:44;;;;;;;2.97;1.45;;;27.00;99.90;;;;;;5072933;28;20805;-58
2022/06/27 11:00:13;;;;;;;2.10;1.52;;;26.80;99.90;;;;;;5072955;28;20287;-57
2022/06/27 11:02:41;;;;;;;1.60;1.27;;;27.00;99.90;;;;;;5073382;28;20209;-56
2022/06/27 11:05:08;;;;;;;2.15;1.20;;;27.70;99.90;;;;;;5073188;28;20209;-57
2022/06/27 11:07:34;;;;;;;2.85;1.10;;;28.30;99.90;;;;;;5073029;28;20244;-55
2022/06/27 11:10:01;;;;;;;2.35;1.08;;;28.60;99.90;;;;;;5072808;28;20209;-56
2022/06/27 11:12:35;;;;;;;1.98;1.08;;;28.70;99.90;;;;;;5072675;28;20227;-55
2022/06/27 11:15:04;;;;;;;1.00;0.90;;;28.50;99.90;;;;;;5072757;28;20228;-55
2022/06/27 11:17:33;;;;;;;1.52;1.05;;;28.10;99.90;;;;;;5096726;22;20224;-60
2022/06/27 11:20:26;;;;;;;1.67;1.10;;;28.00;99.90;;;;;;5073476;28;20201;-59
2022/06/27 11:22:57;;;;;;;2.15;1.15;;;27.70;99.90;;;;;;5073845;28;20213;-60
2022/06/27 11:25:27;;;;;;;3.50;0.93;;;27.70;99.90;;;;;;5073612;28;20227;-59
2022/06/27 11:27:57;;;;;;;1.30;0.77;;;27.60;99.90;;;;;;5073209;28;20225;-61
2022/06/27 11:33:26;;;;;;;1.38;1.13;;;28.10;99.90;;;;;;5073521;28;20576;-59
2022/06/27 11:35:54;;;;;;;3.42;2.58;;;28.40;99.90;;;;;;5073555;28;20278;-59
2022/06/27 11:38:24;;;;;;;3.67;1.40;;;28.70;99.90;;;;;;5073679;28;20204;-59
2022/06/27 11:41:06;;;;;;;1.27;0.95;;;28.80;99.90;;;;;;5073686;28;20209;-59
2022/06/27 11:43:49;;;;;;;1.60;1.20;;;28.90;99.90;;;;;;5072856;28;20533;-60
2022/06/27 11:46:32;;;;;;;1.70;1.20;;;28.90;99.90;;;;;;5071541;28;20366;-60
2022/06/27 11:49:03;;;;;;;1.92;1.20;;;29.10;99.90;;;;;;5073449;28;20628;-60
2022/06/27 11:51:32;;;;;;;2.88;1.35;;;29.10;99.90;;;;;;5072987;28;20205;-60
2022/06/27 11:54:03;;;;;;;1.92;1.20;;;29.00;99.90;;;;;;5072583;28;20208;-61
2022/06/27 11:56:32;;;;;;;1.45;1.15;;;29.00;99.90;;;;;;5072462;28;20236;-61
2022/06/27 11:59:01;;;;;;;2.00;1.10;;;28.70;99.90;;;;;;5072592;28;20236;-60
2022/06/27 12:01:28;;;;;;;2.20;1.08;;;28.50;99.90;;;;;;5072374;28;20205;-61
2022/06/27 12:04:13;;;;;;;2.22;1.00;;;28.30;99.90;;;;;;5073017;28;20213;-61
2022/06/27 12:06:47;;;;;;;3.22;1.27;;;28.10;99.90;;;;;;5072649;28;20734;-61
2022/06/27 12:09:14;;;;;;;2.70;1.15;;;28.30;99.90;;;;;;5073995;28;20200;-61
2022/06/27 12:11:56;;;;;;;2.60;1.30;;;28.00;99.90;;;;;;5073640;28;20201;-61
2022/06/27 12:14:25;;;;;;;1.58;1.30;;;27.70;99.90;;;;;;5073837;28;20200;-61
2022/06/27 12:16:53;;;;;;;2.00;1.25;;;27.30;99.90;;;;;;5073755;28;20539;-61
2022/06/27 12:19:21;;;;;;;1.77;1.60;;;27.20;99.90;;;;;;5072578;28;20211;-61
2022/06/27 12:21:48;;;;;;;2.13;1.30;;;27.20;99.90;;;;;;5073169;28;20213;-59
2022/06/27 12:24:15;;;;;;;2.40;1.38;;;27.20;99.90;;;;;;5074021;28;20205;-59
2022/06/27 12:26:42;;;;;;;1.75;1.58;;;27.10;99.90;;;;;;5073145;28;20221;-59
2022/06/27 12:29:09;;;;;;;3.03;1.50;;;26.80;99.90;;;;;;5073015;28;20209;-61
2022/06/27 12:31:38;;;;;;;2.05;1.80;;;26.60;99.90;;;;;;5072754;28;20208;-60
2022/06/27 12:34:05;;;;;;;1.90;1.58;;;26.40;99.90;;;;;;5073567;28;20287;-60
2022/06/27 12:36:33;;;;;;;1.92;1.52;;;26.20;99.90;;;;;;5073056;28;20704;-60
2022/06/27 12:39:01;;;;;;;3.08;1.58;;;26.20;99.90;;;;;;5073417;28;20239;-62
2022/06/27 12:41:28;;;;;;;2.40;2.00;;;26.20;99.90;;;;;;5073555;28;20204;-59
2022/06/27 12:43:57;;;;;;;2.40;1.83;;;26.10;99.90;;;;;;5072668;28;20228;-60
2022/06/27 12:46:24;;;;;;;3.80;1.80;;;26.00;99.90;;;;;;5073155;28;20712;-59
2022/06/27 12:48:52;;;;;;;6.75;2.50;;;25.90;99.90;;;;;;5072443;28;20205;-60
2022/06/27 12:51:19;;;;;;;4.70;1.90;;;25.80;99.90;;;;;;5072378;28;20216;-60
2022/06/27 12:53:47;;;;;;;4.43;2.50;;;25.70;99.90;;;;;;5071438;28;20310;-60
2022/06/27 12:56:15;;;;;;;3.83;2.20;;;25.60;99.90;;;;;;5071225;28;20236;-60
2022/06/27 12:58:42;;;;;;;3.20;1.98;;;25.60;99.90;;;;;;5075247;28;20205;-59